sensor_id;sensor_type;location;lat;lon;timestamp;P1;durP1;ratioP1;P2;durP2;ratioP2
13311;SDS011;34033;48.672;9.376;2023-05-07T00:00:50;2.53;;;2.33;;
13311;SDS011;34033;48.672;9.376;2023-05-07T00:03:16;2.70;;;2.50;;
13311;SDS011;34033;48.672;9.376;2023-05-07T00:05:41;2.67;;;2.47;;
13311;SDS011;34033;48.672;9.376;2023-05-07T00:08:07;2.80;;;2.60;;
13311;SDS011;34033;48.672;9.376;2023-05-07T00:10:33;2.70;;;2.43;;
13311;SDS011;34033;48.672;9.376;2023-05-07T00:12:58;2.77;;;2.57;;
13311;SDS011;34033;48.672;9.376;2023-05-07T00:15:23;3.03;;;2.73;;
13311;SDS011;34033;48.672;9.376;2023-05-07T00:17:49;2.77;;;2.57;;
13311;SDS011;34033;48.672;9.376;2023-05-07T00:20:14;2.90;;;2.60;;
13311;SDS011;34033;48.672;9.376;2023-05-07T00:22:40;2.90;;;2.70;;
13311;SDS011;34033;48.672;9.376;2023-05-07T00:25:06;2.70;;;2.50;;
13311;SDS011;34033;48.672;9.376;2023-05-07T00:27:31;3.50;;;2.67;;
13311;SDS011;34033;48.672;9.376;2023-05-07T00:29:57;3.63;;;2.60;;
13311;SDS011;34033;48.672;9.376;2023-05-07T00:32:22;2.60;;;2.40;;
13311;SDS011;34033;48.672;9.376;2023-05-07T00:34:47;3.40;;;2.40;;
13311;SDS011;34033;48.672;9.376;2023-05-07T00:37:12;3.20;;;2.90;;
13311;SDS011;34033;48.672;9.376;2023-05-07T00:39:38;3.93;;;2.83;;
13311;SDS011;34033;48.672;9.376;2023-05-07T00:42:03;5.30;;;2.47;;
13311;SDS011;34033;48.672;9.376;2023-05-07T00:44:29;2.63;;;2.43;;
13311;SDS011;34033;48.672;9.376;2023-05-07T00:46:54;2.57;;;2.37;;
13311;SDS011;34033;48.672;9.376;2023-05-07T00:49:21;4.43;;;2.20;;
13311;SDS011;34033;48.672;9.376;2023-05-07T00:51:47;3.90;;;2.40;;
13311;SDS011;34033;48.672;9.376;2023-05-07T00:54:13;2.33;;;2.13;;
13311;SDS011;34033;48.672;9.376;2023-05-07T00:56:38;2.37;;;2.17;;
13311;SDS011;34033;48.672;9.376;2023-05-07T00:59:04;2.60;;;2.40;;
13311;SDS011;34033;48.672;9.376;2023-05-07T01:01:31;3.17;;;2.07;;
13311;SDS011;34033;48.672;9.376;2023-05-07T01:03:56;4.50;;;2.10;;
13311;SDS011;34033;48.672;9.376;2023-05-07T01:06:22;4.33;;;2.03;;
13311;SDS011;34033;48.672;9.376;2023-05-07T01:08:50;2.77;;;2.50;;
13311;SDS011;34033;48.672;9.376;2023-05-07T01:11:17;2.37;;;2.20;;
13311;SDS011;34033;48.672;9.376;2023-05-07T01:13:45;3.27;;;2.43;;
13311;SDS011;34033;48.672;9.376;2023-05-07T01:16:12;2.10;;;2.00;;
13311;SDS011;34033;48.672;9.376;2023-05-07T01:18:37;3.40;;;2.40;;
13311;SDS011;34033;48.672;9.376;2023-05-07T01:21:04;2.20;;;2.00;;
13311;SDS011;34033;48.672;9.376;2023-05-07T01:23:30;2.40;;;2.20;;
13311;SDS011;34033;48.672;9.376;2023-05-07T01:25:55;2.30;;;2.10;;
13311;SDS011;34033;48.672;9.376;2023-05-07T01:28:21;3.03;;;2.40;;
13311;SDS011;34033;48.672;9.376;2023-05-07T01:30:51;2.30;;;2.10;;
13311;SDS011;34033;48.672;9.376;2023-05-07T01:33:26;2.60;;;2.40;;
13311;SDS011;34033;48.672;9.376;2023-05-07T01:35:56;3.93;;;2.50;;
13311;SDS011;34033;48.672;9.376;2023-05-07T01:38:25;2.67;;;2.40;;
13311;SDS011;34033;48.672;9.376;2023-05-07T01:40:52;3.30;;;2.60;;
13311;SDS011;34033;48.672;9.376;2023-05-07T01:43:18;2.70;;;2.50;;
13311;SDS011;34033;48.672;9.376;2023-05-07T01:45:44;2.63;;;2.43;;
13311;SDS011;34033;48.672;9.376;2023-05-07T01:48:10;1.90;;;1.80;;
13311;SDS011;34033;48.672;9.376;2023-05-07T01:50:37;2.77;;;2.17;;
13311;SDS011;34033;48.672;9.376;2023-05-07T01:53:04;2.53;;;2.33;;
13311;SDS011;34033;48.672;9.376;2023-05-07T01:55:29;2.87;;;2.67;;
13311;SDS011;34033;48.672;9.376;2023-05-07T01:57:55;3.10;;;2.80;;
13311;SDS011;34033;48.672;9.376;2023-05-07T02:00:20;2.47;;;2.27;;
13311;SDS011;34033;48.672;9.376;2023-05-07T02:02:46;2.40;;;2.20;;
13311;SDS011;34033;48.672;9.376;2023-05-07T02:05:11;2.40;;;2.20;;
13311;SDS011;34033;48.672;9.376;2023-05-07T02:07:36;2.20;;;2.10;;
13311;SDS011;34033;48.672;9.376;2023-05-07T02:10:02;2.33;;;2.10;;
13311;SDS011;34033;48.672;9.376;2023-05-07T02:12:28;2.70;;;2.40;;
13311;SDS011;34033;48.672;9.376;2023-05-07T02:14:53;3.00;;;2.40;;
13311;SDS011;34033;48.672;9.376;2023-05-07T02:17:19;2.93;;;2.10;;
13311;SDS011;34033;48.672;9.376;2023-05-07T02:19:44;2.10;;;2.00;;
13311;SDS011;34033;48.672;9.376;2023-05-07T02:22:10;4.23;;;2.50;;
13311;SDS011;34033;48.672;9.376;2023-05-07T02:24:35;2.27;;;2.10;;
13311;SDS011;34033;48.672;9.376;2023-05-07T02:27:00;1.97;;;1.87;;
13311;SDS011;34033;48.672;9.376;2023-05-07T02:29:27;2.97;;;2.00;;
13311;SDS011;34033;48.672;9.376;2023-05-07T02:31:52;2.53;;;2.27;;
13311;SDS011;34033;48.672;9.376;2023-05-07T02:34:18;2.43;;;2.17;;
13311;SDS011;34033;48.672;9.376;2023-05-07T02:36:43;6.43;;;2.30;;
13311;SDS011;34033;48.672;9.376;2023-05-07T02:39:09;2.17;;;2.07;;
13311;SDS011;34033;48.672;9.376;2023-05-07T02:41:34;4.60;;;2.20;;
13311;SDS011;34033;48.672;9.376;2023-05-07T02:43:59;2.10;;;1.93;;
13311;SDS011;34033;48.672;9.376;2023-05-07T02:46:25;2.20;;;1.90;;
13311;SDS011;34033;48.672;9.376;2023-05-07T02:48:50;2.50;;;2.30;;
13311;SDS011;34033;48.672;9.376;2023-05-07T02:51:19;2.13;;;1.93;;
13311;SDS011;34033;48.672;9.376;2023-05-07T02:53:45;1.80;;;1.70;;
13311;SDS011;34033;48.672;9.376;2023-05-07T02:56:11;1.93;;;1.77;;
13311;SDS011;34033;48.672;9.376;2023-05-07T02:58:36;2.03;;;1.80;;
13311;SDS011;34033;48.672;9.376;2023-05-07T03:01:01;1.80;;;1.70;;
13311;SDS011;34033;48.672;9.376;2023-05-07T03:03:27;1.93;;;1.83;;
13311;SDS011;34033;48.672;9.376;2023-05-07T03:05:52;1.93;;;1.83;;
13311;SDS011;34033;48.672;9.376;2023-05-07T03:08:17;2.07;;;1.97;;
13311;SDS011;34033;48.672;9.376;2023-05-07T03:10:43;2.50;;;2.13;;
13311;SDS011;34033;48.672;9.376;2023-05-07T03:13:08;2.33;;;2.00;;
13311;SDS011;34033;48.672;9.376;2023-05-07T03:15:34;2.00;;;1.90;;
13311;SDS011;34033;48.672;9.376;2023-05-07T03:17:59;2.17;;;2.07;;
13311;SDS011;34033;48.672;9.376;2023-05-07T03:20:24;2.00;;;1.90;;
13311;SDS011;34033;48.672;9.376;2023-05-07T03:22:50;3.03;;;2.33;;
13311;SDS011;34033;48.672;9.376;2023-05-07T03:25:15;2.23;;;2.03;;
13311;SDS011;34033;48.672;9.376;2023-05-07T03:27:40;2.17;;;1.97;;
13311;SDS011;34033;48.672;9.376;2023-05-07T03:30:07;2.97;;;2.00;;
13311;SDS011;34033;48.672;9.376;2023-05-07T03:32:33;1.90;;;1.77;;
13311;SDS011;34033;48.672;9.376;2023-05-07T03:34:59;4.47;;;2.10;;
13311;SDS011;34033;48.672;9.376;2023-05-07T03:37:25;2.30;;;2.10;;
13311;SDS011;34033;48.672;9.376;2023-05-07T03:39:50;2.40;;;2.20;;
13311;SDS011;34033;48.672;9.376;2023-05-07T03:42:15;2.33;;;2.17;;
13311;SDS011;34033;48.672;9.376;2023-05-07T03:44:41;2.53;;;2.03;;
13311;SDS011;34033;48.672;9.376;2023-05-07T03:47:06;2.50;;;2.30;;
13311;SDS011;34033;48.672;9.376;2023-05-07T03:49:31;2.70;;;2.10;;
13311;SDS011;34033;48.672;9.376;2023-05-07T03:51:57;2.30;;;2.10;;
13311;SDS011;34033;48.672;9.376;2023-05-07T03:54:22;2.30;;;2.10;;
13311;SDS011;34033;48.672;9.376;2023-05-07T03:56:47;6.20;;;2.43;;
13311;SDS011;34033;48.672;9.376;2023-05-07T03:59:13;2.03;;;1.93;;
13311;SDS011;34033;48.672;9.376;2023-05-07T04:01:38;2.10;;;2.00;;
13311;SDS011;34033;48.672;9.376;2023-05-07T04:04:04;2.10;;;1.90;;
13311;SDS011;34033;48.672;9.376;2023-05-07T04:06:30;2.07;;;1.90;;
13311;SDS011;34033;48.672;9.376;2023-05-07T04:08:55;2.00;;;1.90;;
13311;SDS011;34033;48.672;9.376;2023-05-07T04:11:21;1.80;;;1.70;;
13311;SDS011;34033;48.672;9.376;2023-05-07T04:13:46;2.07;;;1.97;;
13311;SDS011;34033;48.672;9.376;2023-05-07T04:16:12;2.53;;;1.93;;
13311;SDS011;34033;48.672;9.376;2023-05-07T04:18:37;5.43;;;2.00;;
13311;SDS011;34033;48.672;9.376;2023-05-07T04:21:03;2.10;;;2.00;;
13311;SDS011;34033;48.672;9.376;2023-05-07T04:23:29;2.40;;;2.00;;
13311;SDS011;34033;48.672;9.376;2023-05-07T04:25:54;2.30;;;2.10;;
13311;SDS011;34033;48.672;9.376;2023-05-07T04:28:20;2.30;;;2.20;;
13311;SDS011;34033;48.672;9.376;2023-05-07T04:30:45;2.20;;;2.10;;
13311;SDS011;34033;48.672;9.376;2023-05-07T04:33:11;1.70;;;1.60;;
13311;SDS011;34033;48.672;9.376;2023-05-07T04:35:36;2.90;;;2.37;;
13311;SDS011;34033;48.672;9.376;2023-05-07T04:38:02;3.00;;;2.47;;
13311;SDS011;34033;48.672;9.376;2023-05-07T04:40:27;2.27;;;2.07;;
13311;SDS011;34033;48.672;9.376;2023-05-07T04:42:52;3.90;;;1.97;;
13311;SDS011;34033;48.672;9.376;2023-05-07T04:45:18;2.00;;;1.90;;
13311;SDS011;34033;48.672;9.376;2023-05-07T04:47:44;2.27;;;2.00;;
13311;SDS011;34033;48.672;9.376;2023-05-07T04:50:09;1.87;;;1.77;;
13311;SDS011;34033;48.672;9.376;2023-05-07T04:52:35;2.20;;;2.07;;
13311;SDS011;34033;48.672;9.376;2023-05-07T04:55:01;2.30;;;2.10;;
13311;SDS011;34033;48.672;9.376;2023-05-07T04:57:26;1.97;;;1.87;;
13311;SDS011;34033;48.672;9.376;2023-05-07T04:59:52;2.77;;;2.00;;
13311;SDS011;34033;48.672;9.376;2023-05-07T05:02:18;2.80;;;2.10;;
13311;SDS011;34033;48.672;9.376;2023-05-07T05:04:43;2.53;;;1.80;;
13311;SDS011;34033;48.672;9.376;2023-05-07T05:07:09;2.00;;;1.90;;
13311;SDS011;34033;48.672;9.376;2023-05-07T05:09:34;6.73;;;2.27;;
13311;SDS011;34033;48.672;9.376;2023-05-07T05:11:59;2.00;;;1.90;;
13311;SDS011;34033;48.672;9.376;2023-05-07T05:14:25;2.30;;;2.10;;
13311;SDS011;34033;48.672;9.376;2023-05-07T05:16:50;2.10;;;2.00;;
13311;SDS011;34033;48.672;9.376;2023-05-07T05:19:15;1.90;;;1.80;;
13311;SDS011;34033;48.672;9.376;2023-05-07T05:21:41;2.13;;;2.00;;
13311;SDS011;34033;48.672;9.376;2023-05-07T05:24:06;1.80;;;1.70;;
13311;SDS011;34033;48.672;9.376;2023-05-07T05:26:32;2.20;;;2.00;;
13311;SDS011;34033;48.672;9.376;2023-05-07T05:28:57;2.23;;;2.03;;
13311;SDS011;34033;48.672;9.376;2023-05-07T05:31:22;2.00;;;1.90;;
13311;SDS011;34033;48.672;9.376;2023-05-07T05:33:48;3.60;;;2.10;;
13311;SDS011;34033;48.672;9.376;2023-05-07T05:36:13;2.30;;;2.20;;
13311;SDS011;34033;48.672;9.376;2023-05-07T05:38:39;2.27;;;2.07;;
13311;SDS011;34033;48.672;9.376;2023-05-07T05:41:04;5.10;;;2.50;;
13311;SDS011;34033;48.672;9.376;2023-05-07T05:43:30;3.93;;;2.50;;
13311;SDS011;34033;48.672;9.376;2023-05-07T05:45:56;3.27;;;3.07;;
13311;SDS011;34033;48.672;9.376;2023-05-07T05:48:21;4.30;;;3.90;;
13311;SDS011;34033;48.672;9.376;2023-05-07T05:50:47;3.60;;;3.30;;
13311;SDS011;34033;48.672;9.376;2023-05-07T05:53:13;3.30;;;3.00;;
13311;SDS011;34033;48.672;9.376;2023-05-07T05:55:38;2.53;;;2.33;;
13311;SDS011;34033;48.672;9.376;2023-05-07T05:58:03;2.53;;;2.33;;
13311;SDS011;34033;48.672;9.376;2023-05-07T06:00:29;2.60;;;2.40;;
13311;SDS011;34033;48.672;9.376;2023-05-07T06:02:54;3.53;;;2.53;;
13311;SDS011;34033;48.672;9.376;2023-05-07T06:05:20;3.70;;;2.90;;
13311;SDS011;34033;48.672;9.376;2023-05-07T06:07:46;3.00;;;2.70;;
13311;SDS011;34033;48.672;9.376;2023-05-07T06:10:11;5.47;;;3.30;;
13311;SDS011;34033;48.672;9.376;2023-05-07T06:12:36;2.90;;;2.70;;
13311;SDS011;34033;48.672;9.376;2023-05-07T06:15:02;2.87;;;2.57;;
13311;SDS011;34033;48.672;9.376;2023-05-07T06:17:27;3.63;;;3.30;;
13311;SDS011;34033;48.672;9.376;2023-05-07T06:19:53;8.43;;;3.20;;
13311;SDS011;34033;48.672;9.376;2023-05-07T06:22:18;5.90;;;3.10;;
13311;SDS011;34033;48.672;9.376;2023-05-07T06:24:44;3.57;;;3.27;;
13311;SDS011;34033;48.672;9.376;2023-05-07T06:27:09;3.47;;;3.00;;
13311;SDS011;34033;48.672;9.376;2023-05-07T06:29:35;3.20;;;2.87;;
13311;SDS011;34033;48.672;9.376;2023-05-07T06:32:10;3.10;;;2.80;;
13311;SDS011;34033;48.672;9.376;2023-05-07T06:34:37;3.87;;;2.90;;
13311;SDS011;34033;48.672;9.376;2023-05-07T06:37:03;4.10;;;2.77;;
13311;SDS011;34033;48.672;9.376;2023-05-07T06:39:28;3.00;;;2.70;;
13311;SDS011;34033;48.672;9.376;2023-05-07T06:41:54;4.80;;;2.60;;
13311;SDS011;34033;48.672;9.376;2023-05-07T06:44:19;2.50;;;2.30;;
13311;SDS011;34033;48.672;9.376;2023-05-07T06:46:45;2.83;;;2.63;;
13311;SDS011;34033;48.672;9.376;2023-05-07T06:49:11;2.60;;;2.40;;
13311;SDS011;34033;48.672;9.376;2023-05-07T06:51:37;2.80;;;2.60;;
13311;SDS011;34033;48.672;9.376;2023-05-07T06:54:03;2.27;;;2.10;;
13311;SDS011;34033;48.672;9.376;2023-05-07T06:56:29;3.60;;;2.70;;
13311;SDS011;34033;48.672;9.376;2023-05-07T06:58:55;2.60;;;2.40;;
13311;SDS011;34033;48.672;9.376;2023-05-07T07:01:20;3.10;;;2.40;;
13311;SDS011;34033;48.672;9.376;2023-05-07T07:03:45;2.27;;;2.10;;
13311;SDS011;34033;48.672;9.376;2023-05-07T07:06:11;2.20;;;2.00;;
13311;SDS011;34033;48.672;9.376;2023-05-07T07:08:36;3.70;;;2.30;;
13311;SDS011;34033;48.672;9.376;2023-05-07T07:11:03;2.23;;;2.03;;
13311;SDS011;34033;48.672;9.376;2023-05-07T07:13:29;2.93;;;1.93;;
13311;SDS011;34033;48.672;9.376;2023-05-07T07:15:54;2.30;;;2.10;;
13311;SDS011;34033;48.672;9.376;2023-05-07T07:18:20;3.20;;;2.20;;
13311;SDS011;34033;48.672;9.376;2023-05-07T07:20:45;2.10;;;2.00;;
13311;SDS011;34033;48.672;9.376;2023-05-07T07:23:10;4.03;;;2.30;;
13311;SDS011;34033;48.672;9.376;2023-05-07T07:25:36;2.00;;;1.90;;
13311;SDS011;34033;48.672;9.376;2023-05-07T07:28:01;4.37;;;2.20;;
13311;SDS011;34033;48.672;9.376;2023-05-07T07:30:27;2.20;;;2.10;;
13311;SDS011;34033;48.672;9.376;2023-05-07T07:32:52;3.23;;;2.30;;
13311;SDS011;34033;48.672;9.376;2023-05-07T07:35:18;4.10;;;2.20;;
13311;SDS011;34033;48.672;9.376;2023-05-07T07:37:43;3.20;;;2.57;;
13311;SDS011;34033;48.672;9.376;2023-05-07T07:40:08;2.40;;;2.30;;
13311;SDS011;34033;48.672;9.376;2023-05-07T07:42:34;5.17;;;2.90;;
13311;SDS011;34033;48.672;9.376;2023-05-07T07:45:00;4.13;;;2.20;;
13311;SDS011;34033;48.672;9.376;2023-05-07T07:47:25;3.33;;;2.30;;
13311;SDS011;34033;48.672;9.376;2023-05-07T07:49:50;3.37;;;2.60;;
13311;SDS011;34033;48.672;9.376;2023-05-07T07:52:16;3.43;;;2.40;;
13311;SDS011;34033;48.672;9.376;2023-05-07T07:54:41;4.33;;;2.30;;
13311;SDS011;34033;48.672;9.376;2023-05-07T07:57:07;4.90;;;1.97;;
13311;SDS011;34033;48.672;9.376;2023-05-07T07:59:33;2.13;;;1.77;;
13311;SDS011;34033;48.672;9.376;2023-05-07T08:01:58;6.83;;;2.20;;
13311;SDS011;34033;48.672;9.376;2023-05-07T08:04:23;5.60;;;2.27;;
13311;SDS011;34033;48.672;9.376;2023-05-07T08:06:49;5.67;;;2.33;;
13311;SDS011;34033;48.672;9.376;2023-05-07T08:09:14;3.53;;;2.00;;
13311;SDS011;34033;48.672;9.376;2023-05-07T08:11:39;5.67;;;1.67;;
13311;SDS011;34033;48.672;9.376;2023-05-07T08:14:05;2.00;;;1.90;;
13311;SDS011;34033;48.672;9.376;2023-05-07T08:16:31;2.53;;;2.33;;
13311;SDS011;34033;48.672;9.376;2023-05-07T08:18:56;3.37;;;2.40;;
13311;SDS011;34033;48.672;9.376;2023-05-07T08:21:22;2.00;;;1.90;;
13311;SDS011;34033;48.672;9.376;2023-05-07T08:23:47;2.37;;;2.00;;
13311;SDS011;34033;48.672;9.376;2023-05-07T08:26:13;2.20;;;2.03;;
13311;SDS011;34033;48.672;9.376;2023-05-07T08:28:38;3.57;;;2.10;;
13311;SDS011;34033;48.672;9.376;2023-05-07T08:31:04;2.10;;;1.70;;
13311;SDS011;34033;48.672;9.376;2023-05-07T08:33:30;2.10;;;1.90;;
13311;SDS011;34033;48.672;9.376;2023-05-07T08:35:55;3.60;;;2.10;;
13311;SDS011;34033;48.672;9.376;2023-05-07T08:38:21;2.57;;;1.90;;
13311;SDS011;34033;48.672;9.376;2023-05-07T08:40:46;3.10;;;2.07;;
13311;SDS011;34033;48.672;9.376;2023-05-07T08:43:12;2.30;;;2.10;;
13311;SDS011;34033;48.672;9.376;2023-05-07T08:45:39;2.40;;;1.80;;
13311;SDS011;34033;48.672;9.376;2023-05-07T08:48:08;3.83;;;1.87;;
13311;SDS011;34033;48.672;9.376;2023-05-07T08:50:35;3.47;;;2.17;;
13311;SDS011;34033;48.672;9.376;2023-05-07T08:53:04;2.03;;;1.93;;
13311;SDS011;34033;48.672;9.376;2023-05-07T08:55:30;2.93;;;2.00;;
13311;SDS011;34033;48.672;9.376;2023-05-07T08:57:55;2.23;;;2.03;;
13311;SDS011;34033;48.672;9.376;2023-05-07T09:00:21;2.43;;;2.23;;
13311;SDS011;34033;48.672;9.376;2023-05-07T09:02:46;2.10;;;2.00;;
13311;SDS011;34033;48.672;9.376;2023-05-07T09:05:12;1.93;;;1.80;;
13311;SDS011;34033;48.672;9.376;2023-05-07T09:07:37;2.40;;;2.10;;
13311;SDS011;34033;48.672;9.376;2023-05-07T09:10:03;3.13;;;2.03;;
13311;SDS011;34033;48.672;9.376;2023-05-07T09:12:29;2.30;;;1.80;;
13311;SDS011;34033;48.672;9.376;2023-05-07T09:14:55;3.23;;;1.97;;
13311;SDS011;34033;48.672;9.376;2023-05-07T09:17:21;2.23;;;2.03;;
13311;SDS011;34033;48.672;9.376;2023-05-07T09:19:46;3.37;;;2.43;;
13311;SDS011;34033;48.672;9.376;2023-05-07T09:22:12;2.23;;;2.03;;
13311;SDS011;34033;48.672;9.376;2023-05-07T09:24:38;2.90;;;2.17;;
13311;SDS011;34033;48.672;9.376;2023-05-07T09:27:04;3.07;;;2.20;;
13311;SDS011;34033;48.672;9.376;2023-05-07T09:29:30;1.97;;;1.87;;
13311;SDS011;34033;48.672;9.376;2023-05-07T09:32:00;1.97;;;1.80;;
13311;SDS011;34033;48.672;9.376;2023-05-07T09:34:33;3.53;;;1.80;;
13311;SDS011;34033;48.672;9.376;2023-05-07T09:36:59;2.60;;;2.03;;
13311;SDS011;34033;48.672;9.376;2023-05-07T09:39:25;1.73;;;1.63;;
13311;SDS011;34033;48.672;9.376;2023-05-07T09:41:51;2.77;;;1.93;;
13311;SDS011;34033;48.672;9.376;2023-05-07T09:44:19;2.00;;;1.90;;
13311;SDS011;34033;48.672;9.376;2023-05-07T09:46:45;1.87;;;1.70;;
13311;SDS011;34033;48.672;9.376;2023-05-07T09:49:20;1.70;;;1.60;;
13311;SDS011;34033;48.672;9.376;2023-05-07T09:51:50;1.90;;;1.80;;
13311;SDS011;34033;48.672;9.376;2023-05-07T09:54:17;1.73;;;1.60;;
13311;SDS011;34033;48.672;9.376;2023-05-07T09:56:43;1.70;;;1.60;;
13311;SDS011;34033;48.672;9.376;2023-05-07T09:59:13;1.90;;;1.80;;
13311;SDS011;34033;48.672;9.376;2023-05-07T10:01:42;1.80;;;1.70;;
13311;SDS011;34033;48.672;9.376;2023-05-07T10:04:12;1.87;;;1.70;;
13311;SDS011;34033;48.672;9.376;2023-05-07T10:06:39;1.73;;;1.40;;
13311;SDS011;34033;48.672;9.376;2023-05-07T10:09:05;1.80;;;1.70;;
13311;SDS011;34033;48.672;9.376;2023-05-07T10:11:34;1.80;;;1.70;;
13311;SDS011;34033;48.672;9.376;2023-05-07T10:14:00;1.83;;;1.73;;
13311;SDS011;34033;48.672;9.376;2023-05-07T10:16:31;1.50;;;1.40;;
13311;SDS011;34033;48.672;9.376;2023-05-07T10:19:01;1.80;;;1.70;;
13311;SDS011;34033;48.672;9.376;2023-05-07T10:21:27;1.30;;;1.23;;
13311;SDS011;34033;48.672;9.376;2023-05-07T10:24:16;1.50;;;1.40;;
13311;SDS011;34033;48.672;9.376;2023-05-07T10:26:51;1.57;;;1.47;;
13311;SDS011;34033;48.672;9.376;2023-05-07T10:29:18;1.70;;;1.60;;
13311;SDS011;34033;48.672;9.376;2023-05-07T10:34:21;1.50;;;1.40;;
13311;SDS011;34033;48.672;9.376;2023-05-07T10:36:51;1.10;;;1.10;;
13311;SDS011;34033;48.672;9.376;2023-05-07T10:39:17;1.60;;;1.40;;
13311;SDS011;34033;48.672;9.376;2023-05-07T10:41:45;1.60;;;1.40;;
13311;SDS011;34033;48.672;9.376;2023-05-07T10:44:11;1.70;;;1.60;;
13311;SDS011;34033;48.672;9.376;2023-05-07T10:46:36;3.23;;;1.87;;
13311;SDS011;34033;48.672;9.376;2023-05-07T10:51:31;3.13;;;1.80;;
13311;SDS011;34033;48.672;9.376;2023-05-07T10:56:42;2.83;;;1.40;;
13311;SDS011;34033;48.672;9.376;2023-05-07T11:04:24;1.50;;;1.40;;
13311;SDS011;34033;48.672;9.376;2023-05-07T11:12:18;1.70;;;1.60;;
13311;SDS011;34033;48.672;9.376;2023-05-07T11:15:09;1.20;;;1.20;;
13311;SDS011;34033;48.672;9.376;2023-05-07T11:17:35;1.53;;;1.43;;
13311;SDS011;34033;48.672;9.376;2023-05-07T11:20:17;1.40;;;1.40;;
13311;SDS011;34033;48.672;9.376;2023-05-07T11:22:43;1.40;;;1.30;;
13311;SDS011;34033;48.672;9.376;2023-05-07T11:25:09;1.30;;;1.30;;
13311;SDS011;34033;48.672;9.376;2023-05-07T11:27:34;1.50;;;1.40;;
13311;SDS011;34033;48.672;9.376;2023-05-07T11:30:00;1.37;;;1.27;;
13311;SDS011;34033;48.672;9.376;2023-05-07T11:32:29;1.30;;;1.30;;
13311;SDS011;34033;48.672;9.376;2023-05-07T11:34:57;1.47;;;1.37;;
13311;SDS011;34033;48.672;9.376;2023-05-07T11:37:24;1.27;;;1.23;;
13311;SDS011;34033;48.672;9.376;2023-05-07T11:39:50;1.43;;;1.33;;
13311;SDS011;34033;48.672;9.376;2023-05-07T11:42:29;1.23;;;1.13;;
13311;SDS011;34033;48.672;9.376;2023-05-07T11:44:56;1.55;;;1.27;;
13311;SDS011;34033;48.672;9.376;2023-05-07T11:47:22;1.30;;;1.30;;
13311;SDS011;34033;48.672;9.376;2023-05-07T11:49:48;1.10;;;1.10;;
13311;SDS011;34033;48.672;9.376;2023-05-07T11:52:15;1.50;;;1.40;;
13311;SDS011;34033;48.672;9.376;2023-05-07T11:54:48;1.58;;;1.48;;
13311;SDS011;34033;48.672;9.376;2023-05-07T11:57:17;1.02;;;1.02;;
13311;SDS011;34033;48.672;9.376;2023-05-07T11:59:43;1.10;;;1.10;;
13311;SDS011;34033;48.672;9.376;2023-05-07T12:02:15;1.38;;;1.27;;
13311;SDS011;34033;48.672;9.376;2023-05-07T12:04:41;1.42;;;1.30;;
13311;SDS011;34033;48.672;9.376;2023-05-07T12:07:12;1.45;;;1.38;;
13311;SDS011;34033;48.672;9.376;2023-05-07T12:09:39;1.15;;;1.15;;
13311;SDS011;34033;48.672;9.376;2023-05-07T12:12:07;1.40;;;1.30;;
13311;SDS011;34033;48.672;9.376;2023-05-07T12:14:37;2.92;;;1.23;;
13311;SDS011;34033;48.672;9.376;2023-05-07T12:17:10;1.45;;;1.35;;
13311;SDS011;34033;48.672;9.376;2023-05-07T12:19:39;1.30;;;1.30;;
13311;SDS011;34033;48.672;9.376;2023-05-07T12:22:09;1.65;;;1.55;;
13311;SDS011;34033;48.672;9.376;2023-05-07T12:27:12;2.93;;;1.50;;
13311;SDS011;34033;48.672;9.376;2023-05-07T12:29:48;2.07;;;1.30;;
13311;SDS011;34033;48.672;9.376;2023-05-07T12:32:18;3.10;;;1.57;;
13311;SDS011;34033;48.672;9.376;2023-05-07T12:34:45;1.30;;;1.20;;
13311;SDS011;34033;48.672;9.376;2023-05-07T12:37:10;1.20;;;1.20;;
13311;SDS011;34033;48.672;9.376;2023-05-07T12:39:37;1.33;;;1.10;;
13311;SDS011;34033;48.672;9.376;2023-05-07T12:42:03;0.90;;;0.90;;
13311;SDS011;34033;48.672;9.376;2023-05-07T12:44:29;1.30;;;1.20;;
13311;SDS011;34033;48.672;9.376;2023-05-07T12:46:56;1.47;;;1.10;;
13311;SDS011;34033;48.672;9.376;2023-05-07T12:49:22;1.20;;;1.20;;
13311;SDS011;34033;48.672;9.376;2023-05-07T12:51:48;1.10;;;1.10;;
13311;SDS011;34033;48.672;9.376;2023-05-07T12:54:27;1.00;;;1.00;;
13311;SDS011;34033;48.672;9.376;2023-05-07T12:57:14;1.40;;;1.00;;
13311;SDS011;34033;48.672;9.376;2023-05-07T12:59:39;0.90;;;0.90;;
13311;SDS011;34033;48.672;9.376;2023-05-07T13:02:05;1.00;;;1.00;;
13311;SDS011;34033;48.672;9.376;2023-05-07T13:04:32;0.93;;;0.90;;
13311;SDS011;34033;48.672;9.376;2023-05-07T13:06:58;0.80;;;0.80;;
13311;SDS011;34033;48.672;9.376;2023-05-07T13:09:24;1.17;;;1.10;;
13311;SDS011;34033;48.672;9.376;2023-05-07T13:11:49;1.30;;;1.30;;
13311;SDS011;34033;48.672;9.376;2023-05-07T13:14:15;1.00;;;1.00;;
13311;SDS011;34033;48.672;9.376;2023-05-07T13:16:40;1.20;;;1.10;;
13311;SDS011;34033;48.672;9.376;2023-05-07T13:19:06;2.97;;;1.20;;
13311;SDS011;34033;48.672;9.376;2023-05-07T13:21:31;1.33;;;1.23;;
13311;SDS011;34033;48.672;9.376;2023-05-07T13:23:57;2.00;;;1.10;;
13311;SDS011;34033;48.672;9.376;2023-05-07T13:26:23;1.27;;;1.20;;
13311;SDS011;34033;48.672;9.376;2023-05-07T13:28:49;1.40;;;1.30;;
13311;SDS011;34033;48.672;9.376;2023-05-07T13:31:14;1.30;;;1.20;;
13311;SDS011;34033;48.672;9.376;2023-05-07T13:33:40;1.57;;;1.20;;
13311;SDS011;34033;48.672;9.376;2023-05-07T13:36:05;1.13;;;1.10;;
13311;SDS011;34033;48.672;9.376;2023-05-07T13:38:31;1.33;;;1.23;;
13311;SDS011;34033;48.672;9.376;2023-05-07T13:40:56;1.47;;;1.40;;
13311;SDS011;34033;48.672;9.376;2023-05-07T13:43:21;1.30;;;1.30;;
13311;SDS011;34033;48.672;9.376;2023-05-07T13:45:47;1.80;;;1.40;;
13311;SDS011;34033;48.672;9.376;2023-05-07T13:48:12;1.60;;;1.50;;
13311;SDS011;34033;48.672;9.376;2023-05-07T13:50:38;1.60;;;1.50;;
13311;SDS011;34033;48.672;9.376;2023-05-07T13:53:03;2.97;;;1.50;;
13311;SDS011;34033;48.672;9.376;2023-05-07T13:55:29;4.13;;;1.60;;
13311;SDS011;34033;48.672;9.376;2023-05-07T13:57:58;1.97;;;1.63;;
13311;SDS011;34033;48.672;9.376;2023-05-07T14:00:25;1.73;;;1.47;;
13311;SDS011;34033;48.672;9.376;2023-05-07T14:02:51;4.93;;;1.17;;
13311;SDS011;34033;48.672;9.376;2023-05-07T14:05:17;1.43;;;1.30;;
13311;SDS011;34033;48.672;9.376;2023-05-07T14:07:43;3.10;;;1.70;;
13311;SDS011;34033;48.672;9.376;2023-05-07T14:10:08;2.43;;;1.30;;
13311;SDS011;34033;48.672;9.376;2023-05-07T14:12:34;5.93;;;3.37;;
13311;SDS011;34033;48.672;9.376;2023-05-07T14:14:59;1.60;;;1.50;;
13311;SDS011;34033;48.672;9.376;2023-05-07T14:17:25;1.93;;;1.70;;
13311;SDS011;34033;48.672;9.376;2023-05-07T14:19:52;1.97;;;1.67;;
13311;SDS011;34033;48.672;9.376;2023-05-07T14:22:19;3.70;;;2.90;;
13311;SDS011;34033;48.672;9.376;2023-05-07T14:24:48;1.60;;;1.50;;
13311;SDS011;34033;48.672;9.376;2023-05-07T14:27:14;5.23;;;3.10;;
13311;SDS011;34033;48.672;9.376;2023-05-07T14:29:40;2.17;;;1.90;;
13311;SDS011;34033;48.672;9.376;2023-05-07T14:32:06;10.63;;;4.33;;
13311;SDS011;34033;48.672;9.376;2023-05-07T14:34:31;4.00;;;2.33;;
13311;SDS011;34033;48.672;9.376;2023-05-07T14:36:58;2.77;;;2.20;;
13311;SDS011;34033;48.672;9.376;2023-05-07T14:39:24;8.07;;;4.00;;
13311;SDS011;34033;48.672;9.376;2023-05-07T14:41:50;5.73;;;3.77;;
13311;SDS011;34033;48.672;9.376;2023-05-07T14:44:15;13.90;;;5.07;;
13311;SDS011;34033;48.672;9.376;2023-05-07T14:46:41;13.03;;;5.53;;
13311;SDS011;34033;48.672;9.376;2023-05-07T14:49:06;3.43;;;2.30;;
13311;SDS011;34033;48.672;9.376;2023-05-07T14:51:33;3.40;;;1.50;;
13311;SDS011;34033;48.672;9.376;2023-05-07T14:53:59;2.10;;;1.77;;
13311;SDS011;34033;48.672;9.376;2023-05-07T14:56:25;6.07;;;2.77;;
13311;SDS011;34033;48.672;9.376;2023-05-07T14:58:50;5.87;;;2.83;;
13311;SDS011;34033;48.672;9.376;2023-05-07T15:01:16;4.87;;;2.90;;
13311;SDS011;34033;48.672;9.376;2023-05-07T15:03:41;5.80;;;1.87;;